MV Nord Discovery — 3EGP — position and weather

sailwx.info

Track history (hours):
 
Tides and Currents Weather Stations Pressure Air Temp Water Temp Dewpoint Dewpoint Depression Visibility Wind Speed Wind Dir Waves Ship Positions

MV Nord Discovery

Last reported at 2014-Jul-26 04:31 UTC. Time now 2014-Jul-26 15:08 UTC.
Position N 45°38' E 030°55'.

Length 183 m; draft 6.7 m.

Type: Cargo ship. MMSI: 354855000.

Date/timePositionNaut miles runAvg speedWind from/ knotsBaromVisibWave heightAir tempDewpointWater temp
2014-Jul-26 04:31N 45°38' E 030°55'1212.7
2014-Jul-26 03:32N 45°26' E 030°49'1212.6
2014-Jul-26 02:34N 45°14' E 030°44'1312.5
2014-Jul-26 01:34N 45°02' E 030°39'25312.0
2014-Jul-25 04:32N 40°59' E 028°60'8 7.7
2014-Jul-25 03:31N 40°53' E 028°55'9 8.3
2014-Jul-25 02:25N 40°50' E 028°43'8611.9
2014-Jul-24 19:12N 40°28' E 026°54'1311.3
2014-Jul-24 18:04N 40°22' E 026°40'3810.7
2014-Jul-24 14:31N 39°58' E 026°00'1110.9
2014-Jul-24 13:32N 39°51' E 025°51'13712.4
2014-Jul-24 02:28N 37°34' E 025°54'1111.9
2014-Jul-24 01:33N 37°24' E 026°01'1312.8
2014-Jul-24 00:33N 37°16' E 026°13'1312.7
2014-Jul-23 23:34N 37°08' E 026°25'  
Track history (hours):
 
Tides and Currents Weather Stations Pressure Air Temp Water Temp Dewpoint Dewpoint Depression Visibility Wind Speed Wind Dir Waves Ship Positions

MV Nord Discovery

Last reported at 2014-Jul-26 04:31 UTC. Time now 2014-Jul-26 15:08 UTC.
Position N 45°38' E 030°55'.

Length 183 m; draft 6.7 m.

Type: Cargo ship. MMSI: 354855000.

Date/timePositionNaut miles runAvg speedWind from/ knotsBaromVisibWave heightAir tempDewpointWater temp
2014-Jul-26 04:31N 45°38' E 030°55'1212.7
2014-Jul-26 03:32N 45°26' E 030°49'1212.6
2014-Jul-26 02:34N 45°14' E 030°44'1312.5
2014-Jul-26 01:34N 45°02' E 030°39'25312.0
2014-Jul-25 04:32N 40°59' E 028°60'8 7.7
2014-Jul-25 03:31N 40°53' E 028°55'9 8.3
2014-Jul-25 02:25N 40°50' E 028°43'8611.9
2014-Jul-24 19:12N 40°28' E 026°54'1311.3
2014-Jul-24 18:04N 40°22' E 026°40'3810.7
2014-Jul-24 14:31N 39°58' E 026°00'1110.9
2014-Jul-24 13:32N 39°51' E 025°51'13712.4
2014-Jul-24 02:28N 37°34' E 025°54'1111.9
2014-Jul-24 01:33N 37°24' E 026°01'1312.8
2014-Jul-24 00:33N 37°16' E 026°13'1312.7
2014-Jul-23 23:34N 37°08' E 026°25'  

Dump ship's entire track history